Time;durP1;ratioP1;P1;durP2;ratioP2;P2;SDS_P1;SDS_P2;PMS_P1;PMS_P2;Temp;Humidity;BMP_temperature;BMP_pressure;BME280_temperature;BME280_humidity;BME280_pressure;Samples;Min_cycle;Max_cycle;Signal;HPM_P1;HPM_P2
2022/03/13 00:00:57;;;;;;;19.05;12.95;;;;;;;;;;4972612;28;20506;-88
2022/03/13 00:03:24;;;;;;;17.67;12.75;;;;;;;;;;4957175;28;20465;-88
2022/03/13 00:05:51;;;;;;;18.15;12.57;;;;;;;;;;4972419;28;20075;-88
2022/03/13 00:08:22;;;;;;;18.67;12.38;;;;;;;;;;4973950;28;20042;-89
2022/03/13 00:10:56;;;;;;;20.00;13.95;;;;;;;;;;4972541;28;20399;-87
2022/03/13 00:13:24;;;;;;;18.48;12.82;;;;;;;;;;4973001;28;20054;-89
2022/03/13 00:15:51;;;;;;;16.90;12.40;;;;;;;;;;4973624;28;20514;-88
2022/03/13 00:18:17;;;;;;;17.02;12.25;;;;;;;;;;4972590;28;20395;-89
2022/03/13 00:20:44;;;;;;;19.77;13.05;;;;;;;;;;4972398;28;20557;-88
2022/03/13 00:23:12;;;;;;;21.45;12.93;;;;;;;;;;4972598;28;20054;-88
2022/03/13 00:25:38;;;;;;;17.80;12.48;;;;;;;;;;4956126;28;20046;-87
2022/03/13 00:28:04;;;;;;;19.50;12.52;;;;;;;;;;4972523;28;20423;-88
2022/03/13 00:30:30;;;;;;;18.30;12.73;;;;;;;;;;4972266;28;20141;-89
2022/03/13 00:32:56;;;;;;;21.85;12.77;;;;;;;;;;4972631;28;20471;-88
2022/03/13 00:35:22;;;;;;;20.20;13.60;;;;;;;;;;4972323;28;20121;-88
2022/03/13 00:37:48;;;;;;;19.65;12.93;;;;;;;;;;4972388;28;20379;-87
2022/03/13 00:40:15;;;;;;;18.83;12.48;;;;;;;;;;4972232;28;20081;-88
2022/03/13 00:42:41;;;;;;;18.63;12.73;;;;;;;;;;4973699;28;20549;-87
2022/03/13 00:45:08;;;;;;;19.02;13.82;;;;;;;;;;4972167;28;20055;-87
2022/03/13 00:47:34;;;;;;;20.77;12.93;;;;;;;;;;4972432;28;20039;-89
2022/03/13 00:50:00;;;;;;;19.30;13.02;;;;;;;;;;4972477;28;20046;-89
2022/03/13 00:52:25;;;;;;;18.50;13.35;;;;;;;;;;4972319;28;20074;-89
2022/03/13 00:54:51;;;;;;;18.25;12.57;;;;;;;;;;4973408;28;20122;-88
2022/03/13 00:57:17;;;;;;;21.08;13.65;;;;;;;;;;4972467;28;20054;-88
2022/03/13 00:59:44;;;;;;;18.45;12.15;;;;;;;;;;4972503;28;20038;-88
2022/03/13 01:02:10;;;;;;;22.40;13.85;;;;;;;;;;4975056;28;20082;-88
2022/03/13 01:04:37;;;;;;;18.98;13.13;;;;;;;;;;4975650;28;20046;-88
2022/03/13 01:07:03;;;;;;;19.13;14.10;;;;;;;;;;4976085;28;20047;-87
2022/03/13 01:09:29;;;;;;;17.95;12.68;;;;;;;;;;4975721;28;20110;-88
2022/03/13 01:11:55;;;;;;;20.17;13.82;;;;;;;;;;4979419;28;20035;-88
2022/03/13 01:14:21;;;;;;;20.85;13.93;;;;;;;;;;4975727;28;20038;-88
2022/03/13 01:16:47;;;;;;;23.98;14.85;;;;;;;;;;4975703;28;20410;-88
2022/03/13 01:19:13;;;;;;;19.92;13.60;;;;;;;;;;4975661;28;20046;-88
2022/03/13 01:21:42;;;;;;;19.27;13.07;;;;;;;;;;4975466;28;20038;-88
2022/03/13 01:24:09;;;;;;;18.10;12.30;;;;;;;;;;4975782;28;20573;-89
2022/03/13 01:26:36;;;;;;;20.58;14.05;;;;;;;;;;4975251;28;20407;-89
2022/03/13 01:29:03;;;;;;;18.25;13.07;;;;;;;;;;4975399;28;20055;-88
2022/03/13 01:31:32;;;;;;;20.20;13.80;;;;;;;;;;4975236;28;20039;-88
2022/03/13 01:33:58;;;;;;;22.73;14.82;;;;;;;;;;4975313;28;20058;-89
2022/03/13 01:36:24;;;;;;;21.05;14.27;;;;;;;;;;4975385;28;20050;-88
2022/03/13 01:38:55;;;;;;;21.80;14.88;;;;;;;;;;4959425;28;20042;-88
2022/03/13 01:41:22;;;;;;;21.48;13.95;;;;;;;;;;4975194;28;20058;-87
2022/03/13 01:43:48;;;;;;;22.42;14.48;;;;;;;;;;4975465;28;20398;-89
2022/03/13 01:46:14;;;;;;;22.65;14.80;;;;;;;;;;4974792;28;20043;-88
2022/03/13 01:48:55;;;;;;;21.92;15.05;;;;;;;;;;4975129;28;20046;-88
2022/03/13 01:51:22;;;;;;;20.63;14.18;;;;;;;;;;4974787;28;20046;-88
2022/03/13 01:53:50;;;;;;;22.13;15.35;;;;;;;;;;4975142;28;20043;-88
2022/03/13 01:56:16;;;;;;;21.50;13.95;;;;;;;;;;4974739;28;20050;-88
2022/03/13 01:58:42;;;;;;;21.95;13.80;;;;;;;;;;4976077;28;20053;-89
2022/03/13 02:01:08;;;;;;;19.67;13.35;;;;;;;;;;4974969;28;20057;-88
2022/03/13 02:03:34;;;;;;;21.33;14.52;;;;;;;;;;4975197;28;20479;-88
2022/03/13 02:06:00;;;;;;;20.35;14.07;;;;;;;;;;4974391;28;20049;-88
2022/03/13 02:08:26;;;;;;;21.42;14.68;;;;;;;;;;4975984;28;20053;-89
2022/03/13 02:10:52;;;;;;;21.20;14.23;;;;;;;;;;4974572;28;20046;-88
2022/03/13 02:13:19;;;;;;;22.38;14.60;;;;;;;;;;4974152;28;20042;-88
2022/03/13 02:15:45;;;;;;;20.05;14.80;;;;;;;;;;4975793;28;20042;-87
2022/03/13 02:18:12;;;;;;;21.73;14.85;;;;;;;;;;4974608;28;20487;-88
2022/03/13 02:20:42;;;;;;;21.35;15.25;;;;;;;;;;4974296;28;20055;-88
2022/03/13 02:23:21;;;;;;;20.95;14.70;;;;;;;;;;4975965;28;20050;-88
2022/03/13 02:25:51;;;;;;;21.70;14.43;;;;;;;;;;4974143;28;20415;-89
2022/03/13 02:28:24;;;;;;;21.15;15.05;;;;;;;;;;4974198;28;20043;-88
2022/03/13 02:30:51;;;;;;;22.45;14.02;;;;;;;;;;4974191;28;20134;-88
2022/03/13 02:33:19;;;;;;;24.15;14.70;;;;;;;;;;4974706;28;20459;-88
2022/03/13 02:35:59;;;;;;;23.90;14.90;;;;;;;;;;4974172;28;20097;-88
2022/03/13 02:38:26;;;;;;;22.58;14.77;;;;;;;;;;4974180;28;20463;-88
2022/03/13 02:40:53;;;;;;;20.30;14.13;;;;;;;;;;4974182;28;20050;-89
2022/03/13 02:43:19;;;;;;;19.48;14.27;;;;;;;;;;4974452;28;20054;-88
2022/03/13 02:45:45;;;;;;;22.48;14.85;;;;;;;;;;4973901;28;20138;-88
2022/03/13 02:48:11;;;;;;;19.88;14.52;;;;;;;;;;4974218;28;20050;-88
2022/03/13 02:50:38;;;;;;;21.83;15.20;;;;;;;;;;4973838;28;20043;-87
2022/03/13 02:53:04;;;;;;;21.52;15.07;;;;;;;;;;4973871;28;20046;-89
2022/03/13 02:55:30;;;;;;;22.88;14.52;;;;;;;;;;4957500;28;20074;-88
2022/03/13 02:57:57;;;;;;;24.83;15.63;;;;;;;;;;4973871;28;20548;-88
2022/03/13 03:00:39;;;;;;;24.30;15.75;;;;;;;;;;4973891;28;20087;-87
2022/03/13 03:03:05;;;;;;;21.80;14.43;;;;;;;;;;4973801;28;20042;-89
2022/03/13 03:05:31;;;;;;;23.95;14.73;;;;;;;;;;4973278;28;20061;-89
2022/03/13 03:07:58;;;;;;;22.05;15.32;;;;;;;;;;4977249;28;20049;-87
2022/03/13 03:10:24;;;;;;;22.20;15.02;;;;;;;;;;4973663;28;20043;-89
2022/03/13 03:12:50;;;;;;;23.13;15.40;;;;;;;;;;4973718;28;20105;-88
2022/03/13 03:15:18;;;;;;;21.98;15.70;;;;;;;;;;4973570;28;20466;-88
2022/03/13 03:17:44;;;;;;;23.00;14.63;;;;;;;;;;4973686;28;20055;-88
2022/03/13 03:20:12;;;;;;;22.83;16.33;;;;;;;;;;4974972;28;20047;-88
2022/03/13 03:22:38;;;;;;;20.23;14.52;;;;;;;;;;4973161;28;20081;-89
2022/03/13 03:25:04;;;;;;;21.52;14.48;;;;;;;;;;4974729;28;20074;-87
2022/03/13 03:27:30;;;;;;;20.30;15.02;;;;;;;;;;4973224;28;20046;-88
2022/03/13 03:29:57;;;;;;;20.65;14.85;;;;;;;;;;4973186;28;20062;-89
2022/03/13 03:32:23;;;;;;;22.45;15.38;;;;;;;;;;4973113;28;20050;-88
2022/03/13 03:34:49;;;;;;;20.48;15.00;;;;;;;;;;4957152;28;20039;-88
2022/03/13 03:37:15;;;;;;;24.98;15.45;;;;;;;;;;4973206;28;20134;-88
2022/03/13 03:39:41;;;;;;;23.15;15.75;;;;;;;;;;4973371;28;20042;-88
2022/03/13 03:42:07;;;;;;;22.20;15.13;;;;;;;;;;4973058;28;20046;-88
2022/03/13 03:44:33;;;;;;;22.27;14.93;;;;;;;;;;4972961;28;20069;-89
2022/03/13 03:46:59;;;;;;;23.13;14.40;;;;;;;;;;4972781;28;20118;-89
2022/03/13 03:49:26;;;;;;;21.27;14.95;;;;;;;;;;4973314;28;20102;-89
2022/03/13 03:51:52;;;;;;;23.13;15.50;;;;;;;;;;4972910;28;20368;-88
2022/03/13 03:54:18;;;;;;;22.55;15.13;;;;;;;;;;4974440;28;20047;-89
2022/03/13 03:56:44;;;;;;;22.15;15.35;;;;;;;;;;4972697;28;20050;-87
2022/03/13 03:59:10;;;;;;;22.60;14.93;;;;;;;;;;4973189;28;20402;-88
2022/03/13 04:01:40;;;;;;;22.27;15.45;;;;;;;;;;4972592;28;20121;-88
2022/03/13 04:04:07;;;;;;;21.77;14.80;;;;;;;;;;4956764;28;20078;-88
2022/03/13 04:06:34;;;;;;;19.95;13.93;;;;;;;;;;4973909;28;20058;-88
2022/03/13 04:09:00;;;;;;;23.08;15.07;;;;;;;;;;4974099;28;20079;-89
2022/03/13 04:11:27;;;;;;;18.52;14.30;;;;;;;;;;4972899;28;20128;-88
2022/03/13 04:13:52;;;;;;;20.67;14.20;;;;;;;;;;4972772;28;20042;-88
2022/03/13 04:16:18;;;;;;;21.55;13.88;;;;;;;;;;4973824;28;20049;-88
2022/03/13 04:18:44;;;;;;;23.13;14.38;;;;;;;;;;4973999;28;20554;-88
2022/03/13 04:21:10;;;;;;;23.38;14.52;;;;;;;;;;4972916;28;20126;-88
2022/03/13 04:23:36;;;;;;;21.60;14.15;;;;;;;;;;4972595;28;20039;-87
2022/03/13 04:26:04;;;;;;;20.85;14.93;;;;;;;;;;4972650;28;20050;-88
2022/03/13 04:28:30;;;;;;;20.35;14.40;;;;;;;;;;4972638;28;20411;-89
2022/03/13 04:30:58;;;;;;;21.02;14.45;;;;;;;;;;4972664;28;20049;-89
2022/03/13 04:33:28;;;;;;;20.88;14.27;;;;;;;;;;4972641;28;20364;-89
2022/03/13 04:35:57;;;;;;;21.15;14.52;;;;;;;;;;4973410;28;20050;-88
2022/03/13 04:38:24;;;;;;;21.20;15.05;;;;;;;;;;4976554;28;20367;-89
2022/03/13 04:40:52;;;;;;;22.52;15.32;;;;;;;;;;4976376;28;20126;-88
2022/03/13 04:43:19;;;;;;;21.58;15.60;;;;;;;;;;4977324;28;20054;-87
2022/03/13 04:45:45;;;;;;;20.40;14.10;;;;;;;;;;4976338;28;20426;-88
2022/03/13 04:48:12;;;;;;;19.52;13.90;;;;;;;;;;4976063;28;20504;-88
2022/03/13 04:50:38;;;;;;;24.10;15.05;;;;;;;;;;4976711;28;20375;-89
2022/03/13 04:53:04;;;;;;;21.73;13.13;;;;;;;;;;4976298;28;20086;-89
2022/03/13 04:55:30;;;;;;;24.35;14.23;;;;;;;;;;4977530;28;20074;-88
2022/03/13 04:57:56;;;;;;;21.23;14.10;;;;;;;;;;4975895;28;20516;-88
2022/03/13 05:00:25;;;;;;;21.15;14.27;;;;;;;;;;4976076;28;20042;-89
2022/03/13 05:02:51;;;;;;;21.20;14.52;;;;;;;;;;4959688;28;20042;-88
2022/03/13 05:05:17;;;;;;;19.65;13.55;;;;;;;;;;4975835;28;20121;-88
2022/03/13 05:07:44;;;;;;;22.17;14.27;;;;;;;;;;4975710;28;20074;-88
2022/03/13 05:10:11;;;;;;;19.35;13.20;;;;;;;;;;4976068;28;20051;-88
2022/03/13 05:12:37;;;;;;;21.05;13.45;;;;;;;;;;4976957;28;20050;-88
2022/03/13 05:15:03;;;;;;;23.13;13.73;;;;;;;;;;4975779;28;20482;-87
2022/03/13 05:17:29;;;;;;;18.75;12.52;;;;;;;;;;4975487;28;20490;-89
2022/03/13 05:19:55;;;;;;;19.38;13.55;;;;;;;;;;4975621;28;20053;-89
2022/03/13 05:22:22;;;;;;;20.38;12.93;;;;;;;;;;4975732;28;20065;-88
2022/03/13 05:24:48;;;;;;;21.05;12.63;;;;;;;;;;4975581;28;20133;-89
2022/03/13 05:27:14;;;;;;;21.60;13.40;;;;;;;;;;4975260;28;20129;-88
2022/03/13 05:29:40;;;;;;;19.13;12.95;;;;;;;;;;4976730;28;20058;-88
2022/03/13 05:32:06;;;;;;;23.38;14.07;;;;;;;;;;4975577;28;20042;-91
2022/03/13 05:34:32;;;;;;;19.10;13.30;;;;;;;;;;4975557;28;20174;-89
2022/03/13 05:36:58;;;;;;;20.45;12.25;;;;;;;;;;4975318;28;20139;-89
2022/03/13 05:39:24;;;;;;;19.45;12.65;;;;;;;;;;4975593;28;20498;-89
2022/03/13 05:41:50;;;;;;;20.65;13.60;;;;;;;;;;4975541;28;20129;-90
2022/03/13 05:44:16;;;;;;;22.38;13.45;;;;;;;;;;4975302;28;20046;-90
2022/03/13 05:46:42;;;;;;;21.95;13.13;;;;;;;;;;4980357;28;20055;-92
2022/03/13 05:49:08;;;;;;;19.15;12.77;;;;;;;;;;4974871;28;20086;-90
2022/03/13 05:51:42;;;;;;;19.77;13.00;;;;;;;;;;4975459;28;20130;-89
2022/03/13 05:54:08;;;;;;;21.02;13.25;;;;;;;;;;4975390;28;20494;-90
2022/03/13 05:56:34;;;;;;;21.85;12.90;;;;;;;;;;4975283;28;20043;-90
2022/03/13 05:59:00;;;;;;;23.45;13.32;;;;;;;;;;4975129;28;20043;-90
2022/03/13 06:01:26;;;;;;;21.00;13.80;;;;;;;;;;4975211;28;20074;-90
2022/03/13 06:03:53;;;;;;;21.63;13.82;;;;;;;;;;4974991;28;20125;-91
2022/03/13 06:06:20;;;;;;;19.25;13.00;;;;;;;;;;4975324;28;20047;-90
2022/03/13 06:08:46;;;;;;;20.63;12.98;;;;;;;;;;4974942;28;20047;-89
2022/03/13 06:11:13;;;;;;;21.23;13.73;;;;;;;;;;4976585;28;20038;-90
2022/03/13 06:13:39;;;;;;;18.70;13.18;;;;;;;;;;4974690;28;20045;-90
2022/03/13 06:16:05;;;;;;;18.40;12.60;;;;;;;;;;4975147;28;20082;-88
2022/03/13 06:18:34;;;;;;;18.48;12.73;;;;;;;;;;4974519;28;20050;-88
2022/03/13 06:21:01;;;;;;;20.73;13.98;;;;;;;;;;4974574;28;20046;-89
2022/03/13 06:23:29;;;;;;;21.50;13.23;;;;;;;;;;4974434;28;20085;-89
2022/03/13 06:25:58;;;;;;;20.80;12.75;;;;;;;;;;4974557;28;20050;-88
2022/03/13 06:28:24;;;;;;;20.50;13.25;;;;;;;;;;4971810;28;20041;-88
2022/03/13 06:30:50;;;;;;;20.15;12.40;;;;;;;;;;4956426;28;20051;-89
2022/03/13 06:33:16;;;;;;;19.92;14.10;;;;;;;;;;4954487;28;20041;-88
2022/03/13 06:35:42;;;;;;;23.00;13.23;;;;;;;;;;4954807;28;20137;-87
2022/03/13 06:38:08;;;;;;;18.77;13.63;;;;;;;;;;4954301;28;20051;-89
2022/03/13 06:40:34;;;;;;;20.70;14.27;;;;;;;;;;4954506;28;20085;-89
2022/03/13 06:43:00;;;;;;;19.55;13.93;;;;;;;;;;4955614;28;20118;-89
2022/03/13 06:45:27;;;;;;;20.05;12.27;;;;;;;;;;4954845;28;20047;-88
2022/03/13 06:47:53;;;;;;;18.58;12.95;;;;;;;;;;4954086;28;20054;-88
2022/03/13 06:50:21;;;;;;;20.02;13.25;;;;;;;;;;4954643;28;20510;-88
2022/03/13 06:52:47;;;;;;;20.55;13.95;;;;;;;;;;4954465;28;20394;-87
2022/03/13 06:55:14;;;;;;;20.75;13.52;;;;;;;;;;4955451;28;20102;-87
2022/03/13 06:57:41;;;;;;;19.95;13.30;;;;;;;;;;4954255;28;20491;-88
2022/03/13 07:00:07;;;;;;;20.00;13.07;;;;;;;;;;4954030;28;20051;-88
2022/03/13 07:02:33;;;;;;;20.60;13.93;;;;;;;;;;4955411;28;20142;-89
2022/03/13 07:04:59;;;;;;;17.85;12.65;;;;;;;;;;4955451;28;20130;-88
2022/03/13 07:07:26;;;;;;;18.90;13.02;;;;;;;;;;4953884;28;20085;-88
2022/03/13 07:09:52;;;;;;;18.23;12.65;;;;;;;;;;4955212;28;20510;-88
2022/03/13 07:12:19;;;;;;;18.65;12.55;;;;;;;;;;4954280;28;20047;-88
2022/03/13 07:14:48;;;;;;;20.25;13.30;;;;;;;;;;4953984;28;20086;-88
2022/03/13 07:17:14;;;;;;;21.50;12.75;;;;;;;;;;4953916;28;20511;-87
2022/03/13 07:19:43;;;;;;;18.67;12.55;;;;;;;;;;4954139;28;20112;-88
2022/03/13 07:22:13;;;;;;;18.98;12.27;;;;;;;;;;4953548;28;20050;-87
2022/03/13 07:24:39;;;;;;;17.13;12.65;;;;;;;;;;4953599;28;20043;-88
2022/03/13 07:27:05;;;;;;;19.92;12.77;;;;;;;;;;4953572;28;20043;-89
2022/03/13 07:29:31;;;;;;;21.90;12.90;;;;;;;;;;4967395;28;20073;-88
2022/03/13 07:31:57;;;;;;;20.58;12.18;;;;;;;;;;4972899;28;20050;-89
2022/03/13 07:34:24;;;;;;;19.40;12.40;;;;;;;;;;4962723;28;20043;-88
2022/03/13 07:36:51;;;;;;;17.55;11.77;;;;;;;;;;4953431;28;20399;-88
2022/03/13 07:39:18;;;;;;;18.10;11.60;;;;;;;;;;4953323;28;20051;-87
2022/03/13 07:41:44;;;;;;;19.45;11.98;;;;;;;;;;4953430;28;20051;-88
2022/03/13 07:44:10;;;;;;;16.90;11.77;;;;;;;;;;4953483;28;20065;-88
2022/03/13 07:46:36;;;;;;;19.20;12.38;;;;;;;;;;4953110;28;20043;-88
2022/03/13 07:49:02;;;;;;;23.13;12.38;;;;;;;;;;4953024;28;20046;-88
2022/03/13 07:51:28;;;;;;;15.90;11.52;;;;;;;;;;4954754;28;20035;-88
2022/03/13 07:53:54;;;;;;;18.33;12.25;;;;;;;;;;4952976;28;20395;-88
2022/03/13 07:56:20;;;;;;;18.52;12.02;;;;;;;;;;4953330;28;20047;-88
2022/03/13 07:58:47;;;;;;;17.60;12.18;;;;;;;;;;4937199;28;20341;-90
2022/03/13 08:01:13;;;;;;;15.85;11.20;;;;;;;;;;4954378;28;20063;-88
2022/03/13 08:03:39;;;;;;;19.05;11.55;;;;;;;;;;4967050;28;20043;-88
2022/03/13 08:06:05;;;;;;;20.77;11.82;;;;;;;;;;4972698;28;20075;-88
2022/03/13 08:08:31;;;;;;;18.08;11.68;;;;;;;;;;4972406;28;20383;-88
2022/03/13 08:10:58;;;;;;;17.42;11.45;;;;;;;;;;4972181;28;20038;-89
2022/03/13 08:13:24;;;;;;;16.17;11.80;;;;;;;;;;4972774;28;20050;-88
2022/03/13 08:15:50;;;;;;;21.55;12.18;;;;;;;;;;4956622;28;20062;-90
2022/03/13 08:18:16;;;;;;;16.35;11.13;;;;;;;;;;4972847;28;20047;-89
2022/03/13 08:20:42;;;;;;;16.65;10.65;;;;;;;;;;4973660;28;20377;-89
2022/03/13 08:23:08;;;;;;;15.35;10.75;;;;;;;;;;4972794;28;20057;-89
2022/03/13 08:25:36;;;;;;;17.55;11.45;;;;;;;;;;4972390;28;20467;-89
2022/03/13 08:28:02;;;;;;;16.65;10.63;;;;;;;;;;4972944;28;20082;-89
2022/03/13 08:30:29;;;;;;;17.45;10.80;;;;;;;;;;4972251;28;20054;-90
2022/03/13 08:32:55;;;;;;;16.52;10.65;;;;;;;;;;4972645;28;20074;-89
2022/03/13 08:35:21;;;;;;;19.30;11.30;;;;;;;;;;4956458;28;20047;-88
2022/03/13 08:37:47;;;;;;;16.33;11.02;;;;;;;;;;4972725;28;20053;-89
2022/03/13 08:40:14;;;;;;;15.82;11.52;;;;;;;;;;4972422;28;20054;-89
2022/03/13 08:42:40;;;;;;;17.20;11.05;;;;;;;;;;4972583;28;20070;-88
2022/03/13 08:45:07;;;;;;;16.20;10.95;;;;;;;;;;4973439;28;20046;-89
2022/03/13 08:47:33;;;;;;;19.17;11.43;;;;;;;;;;4972452;28;20050;-89
2022/03/13 08:49:59;;;;;;;16.42;11.13;;;;;;;;;;4972557;28;20046;-88
2022/03/13 08:52:25;;;;;;;16.65;11.38;;;;;;;;;;4972598;28;20115;-88
2022/03/13 08:54:51;;;;;;;17.45;11.10;;;;;;;;;;4972542;28;20121;-90
2022/03/13 08:57:17;;;;;;;16.30;10.88;;;;;;;;;;4972235;28;20035;-88
2022/03/13 08:59:42;;;;;;;16.73;11.25;;;;;;;;;;4969659;28;20258;-87
2022/03/13 09:02:09;;;;;;;18.35;12.85;;;;;;;;;;4970971;28;20042;-89
2022/03/13 09:04:35;;;;;;;18.27;11.93;;;;;;;;;;4973519;28;20038;-89
2022/03/13 09:07:01;;;;;;;16.27;11.25;;;;;;;;;;4972012;28;20478;-88
2022/03/13 09:09:27;;;;;;;19.40;11.18;;;;;;;;;;4972018;28;20078;-88
2022/03/13 09:11:53;;;;;;;18.23;12.60;;;;;;;;;;4971984;28;20078;-88
2022/03/13 09:14:20;;;;;;;17.65;12.52;;;;;;;;;;4971035;28;20129;-89
2022/03/13 09:16:46;;;;;;;15.85;12.13;;;;;;;;;;4972145;28;20043;-88
2022/03/13 09:19:13;;;;;;;16.70;11.57;;;;;;;;;;4971800;28;20403;-89
2022/03/13 09:21:39;;;;;;;15.23;11.15;;;;;;;;;;4972751;28;20053;-89
2022/03/13 09:24:07;;;;;;;15.02;10.88;;;;;;;;;;4975762;28;20043;-89
2022/03/13 09:26:34;;;;;;;15.35;11.60;;;;;;;;;;4974283;28;20047;-89
2022/03/13 09:29:01;;;;;;;16.23;11.35;;;;;;;;;;4976703;28;20058;-90
2022/03/13 09:31:27;;;;;;;16.10;11.23;;;;;;;;;;4974488;28;20125;-88
2022/03/13 09:33:53;;;;;;;16.00;11.23;;;;;;;;;;4975660;28;20061;-89
2022/03/13 09:36:19;;;;;;;16.38;11.02;;;;;;;;;;4974126;28;20138;-88
2022/03/13 09:38:45;;;;;;;15.07;10.95;;;;;;;;;;4975626;28;20043;-89
2022/03/13 09:41:12;;;;;;;19.80;13.25;;;;;;;;;;4974250;28;20061;-88
2022/03/13 09:43:38;;;;;;;18.20;10.95;;;;;;;;;;4976404;28;20158;-87
2022/03/13 09:46:04;;;;;;;17.08;11.80;;;;;;;;;;4971530;28;20078;-88
2022/03/13 09:48:31;;;;;;;17.92;11.88;;;;;;;;;;4975184;28;20057;-90
2022/03/13 09:50:57;;;;;;;18.30;13.00;;;;;;;;;;4973722;28;20427;-87
2022/03/13 09:53:23;;;;;;;22.85;13.63;;;;;;;;;;4975346;28;20042;-87
2022/03/13 09:55:49;;;;;;;34.10;21.55;;;;;;;;;;4975007;28;20570;-87
2022/03/13 09:58:15;;;;;;;50.80;29.48;;;;;;;;;;4976182;28;20121;-87
2022/03/13 10:00:41;;;;;;;18.23;12.80;;;;;;;;;;4972621;28;20053;-87
2022/03/13 10:03:11;;;;;;;27.92;17.98;;;;;;;;;;4975217;28;20069;-87
2022/03/13 10:05:40;;;;;;;26.50;17.55;;;;;;;;;;4974744;28;20054;-88
2022/03/13 10:08:07;;;;;;;23.50;14.63;;;;;;;;;;4974836;28;20043;-89
2022/03/13 10:10:44;;;;;;;31.30;21.17;;;;;;;;;;4973633;28;20086;-87
2022/03/13 10:13:10;;;;;;;20.13;13.55;;;;;;;;;;4975959;28;20503;-87
2022/03/13 10:15:54;;;;;;;17.63;12.70;;;;;;;;;;4973381;28;20082;-87
2022/03/13 10:18:23;;;;;;;18.38;12.82;;;;;;;;;;4974888;28;20069;-87
2022/03/13 10:20:50;;;;;;;17.55;12.00;;;;;;;;;;4974404;28;20205;-87
2022/03/13 10:23:18;;;;;;;17.50;11.73;;;;;;;;;;4974548;28;20060;-87
2022/03/13 10:25:44;;;;;;;16.23;11.02;;;;;;;;;;4973172;28;20055;-88
2022/03/13 10:28:24;;;;;;;15.88;11.25;;;;;;;;;;4974445;28;20039;-89
2022/03/13 10:30:59;;;;;;;17.92;12.10;;;;;;;;;;4974256;28;20130;-89
2022/03/13 10:33:26;;;;;;;18.58;13.13;;;;;;;;;;4973799;28;20047;-86
2022/03/13 10:36:06;;;;;;;16.00;11.05;;;;;;;;;;4974124;28;20169;-87
2022/03/13 10:38:34;;;;;;;15.85;12.25;;;;;;;;;;4974235;28;20082;-87
2022/03/13 10:41:01;;;;;;;19.45;13.93;;;;;;;;;;4974346;28;20129;-86
2022/03/13 10:43:29;;;;;;;21.80;13.60;;;;;;;;;;4974432;28;20143;-86
2022/03/13 10:45:58;;;;;;;21.42;12.60;;;;;;;;;;4973968;28;20050;-87
2022/03/13 10:48:37;;;;;;;19.20;11.75;;;;;;;;;;4975434;28;20074;-88
2022/03/13 10:51:04;;;;;;;17.15;12.45;;;;;;;;;;4958111;28;20416;-87
2022/03/13 10:53:32;;;;;;;20.63;11.75;;;;;;;;;;4974054;28;20081;-86
2022/03/13 10:56:27;;;;;;;19.15;12.18;;;;;;;;;;4973835;28;20055;-88
2022/03/13 10:58:53;;;;;;;17.98;11.73;;;;;;;;;;4958203;28;20549;-88
2022/03/13 11:01:21;;;;;;;17.55;12.23;;;;;;;;;;4973819;28;20047;-87
2022/03/13 11:03:48;;;;;;;17.58;12.13;;;;;;;;;;4957873;28;20051;-86
2022/03/13 11:06:14;;;;;;;17.67;13.13;;;;;;;;;;4975804;28;20568;-87
2022/03/13 11:08:41;;;;;;;16.23;11.85;;;;;;;;;;4973706;28;20125;-87
2022/03/13 11:11:09;;;;;;;20.23;12.50;;;;;;;;;;4956239;28;20439;-87
2022/03/13 11:13:37;;;;;;;17.67;11.90;;;;;;;;;;4973607;28;20077;-87
2022/03/13 11:16:04;;;;;;;17.58;11.75;;;;;;;;;;4974275;28;20043;-88
2022/03/13 11:18:35;;;;;;;17.30;12.65;;;;;;;;;;4973558;28;20050;-87
2022/03/13 11:21:01;;;;;;;18.63;12.15;;;;;;;;;;4973233;28;20051;-85
2022/03/13 11:23:30;;;;;;;17.85;12.88;;;;;;;;;;4973674;28;20050;-88
2022/03/13 11:25:56;;;;;;;18.95;13.15;;;;;;;;;;4956108;28;20047;-87
2022/03/13 11:28:22;;;;;;;21.27;14.50;;;;;;;;;;4973204;28;20114;-87
2022/03/13 11:30:50;;;;;;;22.92;15.40;;;;;;;;;;4956446;28;20085;-88
2022/03/13 11:33:36;;;;;;;18.95;12.52;;;;;;;;;;4974267;28;20043;-87
2022/03/13 11:36:21;;;;;;;16.48;11.63;;;;;;;;;;4972560;28;20124;-87
2022/03/13 11:38:54;;;;;;;16.63;12.18;;;;;;;;;;4973133;28;20063;-87
2022/03/13 11:41:32;;;;;;;18.50;11.65;;;;;;;;;;4973459;28;20047;-87
2022/03/13 11:44:02;;;;;;;21.30;14.13;;;;;;;;;;4973406;28;20058;-88
2022/03/13 11:46:38;;;;;;;15.27;11.43;;;;;;;;;;4970798;28;20514;-87
2022/03/13 11:49:23;;;;;;;18.88;11.35;;;;;;;;;;4974620;28;20109;-87
2022/03/13 11:51:49;;;;;;;18.90;12.23;;;;;;;;;;4971674;28;20097;-87
2022/03/13 11:54:35;;;;;;;18.35;12.25;;;;;;;;;;4973230;28;20051;-87
2022/03/13 11:57:12;;;;;;;15.82;12.45;;;;;;;;;;4972835;28;20085;-87
2022/03/13 11:59:38;;;;;;;15.75;11.40;;;;;;;;;;4974383;28;20046;-87
2022/03/13 12:02:04;;;;;;;20.08;12.15;;;;;;;;;;4971714;28;20093;-86
2022/03/13 12:04:30;;;;;;;16.75;12.02;;;;;;;;;;4973079;28;20074;-88
2022/03/13 12:06:57;;;;;;;18.02;11.88;;;;;;;;;;4971506;28;20058;-88
2022/03/13 12:09:26;;;;;;;16.63;11.60;;;;;;;;;;4974262;28;20050;-86
2022/03/13 12:12:03;;;;;;;16.40;11.60;;;;;;;;;;4973632;28;20483;-87
2022/03/13 12:14:48;;;;;;;17.20;11.65;;;;;;;;;;4972773;28;20050;-87
2022/03/13 12:17:15;;;;;;;14.88;11.38;;;;;;;;;;4971808;28;20085;-86
2022/03/13 12:19:42;;;;;;;15.75;11.60;;;;;;;;;;4974168;28;20130;-87
2022/03/13 12:22:08;;;;;;;17.77;12.13;;;;;;;;;;4971853;28;20058;-87
2022/03/13 12:24:35;;;;;;;15.95;11.10;;;;;;;;;;4956628;28;20043;-86
2022/03/13 12:27:01;;;;;;;16.73;11.57;;;;;;;;;;4971252;28;20078;-87
2022/03/13 12:29:32;;;;;;;16.73;11.60;;;;;;;;;;4972279;28;20439;-86
2022/03/13 12:31:59;;;;;;;14.77;11.27;;;;;;;;;;4972045;28;20073;-87
2022/03/13 12:34:25;;;;;;;16.20;11.63;;;;;;;;;;4972932;28;20395;-86
2022/03/13 12:36:53;;;;;;;17.88;11.70;;;;;;;;;;4970325;28;20043;-87
2022/03/13 12:39:19;;;;;;;17.35;11.43;;;;;;;;;;4955617;28;20130;-86
2022/03/13 12:41:46;;;;;;;17.77;11.82;;;;;;;;;;4970259;28;20125;-85
2022/03/13 12:44:12;;;;;;;17.30;11.93;;;;;;;;;;4972875;28;20038;-87
2022/03/13 12:46:39;;;;;;;16.48;11.25;;;;;;;;;;4969952;28;20130;-87
2022/03/13 12:49:07;;;;;;;15.00;10.32;;;;;;;;;;4971799;28;20039;-87
2022/03/13 12:51:41;;;;;;;15.05;11.07;;;;;;;;;;4971797;28;20097;-86
2022/03/13 12:54:14;;;;;;;16.80;11.25;;;;;;;;;;4958530;28;20043;-87
2022/03/13 12:56:50;;;;;;;16.98;12.27;;;;;;;;;;4971880;28;20047;-86
2022/03/13 12:59:30;;;;;;;19.60;12.27;;;;;;;;;;4974791;28;20557;-87
2022/03/13 13:02:08;;;;;;;16.92;11.07;;;;;;;;;;4974908;28;20094;-86
2022/03/13 13:04:34;;;;;;;18.17;12.13;;;;;;;;;;4974940;28;20109;-87
2022/03/13 13:07:01;;;;;;;16.85;11.10;;;;;;;;;;4974390;28;20046;-87
2022/03/13 13:09:28;;;;;;;15.73;11.27;;;;;;;;;;4974777;28;20049;-87
2022/03/13 13:11:54;;;;;;;16.65;12.00;;;;;;;;;;4974709;28;20446;-87
2022/03/13 13:14:27;;;;;;;21.00;12.05;;;;;;;;;;4974944;28;20085;-87
2022/03/13 13:16:54;;;;;;;16.15;11.60;;;;;;;;;;4973328;28;20510;-85
2022/03/13 13:19:20;;;;;;;19.50;11.75;;;;;;;;;;4974839;28;20564;-86
2022/03/13 13:21:55;;;;;;;16.23;11.48;;;;;;;;;;4973470;28;20058;-87
2022/03/13 13:24:34;;;;;;;16.20;11.15;;;;;;;;;;4974835;28;20432;-87
2022/03/13 13:27:01;;;;;;;16.38;11.63;;;;;;;;;;4973215;28;20553;-88
2022/03/13 13:29:34;;;;;;;18.03;12.10;;;;;;;;;;4939790;28;1019496;-86
2022/03/13 13:32:19;;;;;;;16.17;11.60;;;;;;;;;;4974331;28;20381;-86
2022/03/13 13:35:03;;;;;;;16.52;11.93;;;;;;;;;;4976635;28;20226;-87
2022/03/13 13:37:29;;;;;;;15.20;11.40;;;;;;;;;;4973969;28;20058;-86
2022/03/13 13:40:04;;;;;;;17.02;10.88;;;;;;;;;;4975562;28;20097;-87
2022/03/13 13:42:32;;;;;;;17.08;12.07;;;;;;;;;;4974884;28;20054;-88
2022/03/13 13:44:59;;;;;;;15.13;11.27;;;;;;;;;;4975455;28;20517;-87
2022/03/13 13:47:25;;;;;;;15.70;11.05;;;;;;;;;;4973845;28;20042;-88
2022/03/13 13:49:51;;;;;;;16.75;11.77;;;;;;;;;;4976666;28;20461;-88
2022/03/13 13:52:17;;;;;;;16.42;12.35;;;;;;;;;;4974121;28;20168;-87
2022/03/13 13:54:43;;;;;;;19.52;14.90;;;;;;;;;;4976459;28;20125;-87
2022/03/13 13:57:20;;;;;;;18.80;13.23;;;;;;;;;;4973509;28;20125;-86
2022/03/13 13:59:46;;;;;;;20.08;13.52;;;;;;;;;;4959009;28;20056;-88
2022/03/13 14:02:17;;;;;;;17.35;12.82;;;;;;;;;;4973756;28;20046;-89
2022/03/13 14:04:45;;;;;;;16.73;12.50;;;;;;;;;;4958910;28;20129;-86
2022/03/13 14:07:12;;;;;;;17.45;12.48;;;;;;;;;;4975910;28;20054;-87
2022/03/13 14:09:38;;;;;;;19.92;14.10;;;;;;;;;;4973958;28;20400;-87
2022/03/13 14:12:05;;;;;;;20.58;12.20;;;;;;;;;;4974718;28;20057;-87
2022/03/13 14:14:31;;;;;;;18.20;11.63;;;;;;;;;;4976088;28;20038;-86
2022/03/13 14:16:57;;;;;;;18.50;12.07;;;;;;;;;;4973847;28;20046;-87
2022/03/13 14:19:27;;;;;;;18.67;12.05;;;;;;;;;;4975820;28;20074;-87